Time;durP1;ratioP1;P1;durP2;ratioP2;P2;SDS_P1;SDS_P2;PMS_P1;PMS_P2;Temp;Humidity;BMP_temperature;BMP_pressure;BME280_temperature;BME280_humidity;BME280_pressure;Samples;Min_cycle;Max_cycle;Signal;HPM_P1;HPM_P2
2021/12/29 00:01:42;;;;;;;35.53;16.87;;;-1.50;99.90;;;;;;5044447;28;20241;-76
2021/12/29 00:04:31;;;;;;;36.63;16.93;;;-1.50;99.90;;;;;;5046635;28;20223;-76
2021/12/29 00:07:21;;;;;;;36.83;18.03;;;-1.50;99.90;;;;;;5056634;28;20216;-75
2021/12/29 00:10:16;;;;;;;40.33;18.63;;;-1.50;99.90;;;;;;5056201;28;20216;-76
2021/12/29 00:13:06;;;;;;;35.37;17.90;;;-1.50;99.90;;;;;;5044843;28;20228;-76
2021/12/29 00:15:57;;;;;;;38.17;19.00;;;-1.50;99.90;;;;;;5060014;28;20226;-76
2021/12/29 00:18:46;;;;;;;36.23;17.70;;;-1.50;99.90;;;;;;5060031;28;20295;-75
2021/12/29 00:21:37;;;;;;;33.53;17.70;;;-1.60;99.90;;;;;;5064628;28;20231;-73
2021/12/29 00:24:25;;;;;;;40.17;19.43;;;-1.60;99.90;;;;;;5057259;28;20224;-76
2021/12/29 00:27:15;;;;;;;39.43;18.87;;;-1.50;99.90;;;;;;5051421;28;20220;-75
2021/12/29 00:30:07;;;;;;;39.27;19.10;;;-1.50;99.90;;;;;;5049217;28;20236;-76
2021/12/29 00:33:14;;;;;;;40.23;18.90;;;-1.50;99.90;;;;;;5060334;28;20220;-76
2021/12/29 00:36:05;;;;;;;34.13;17.20;;;-1.50;99.90;;;;;;5059529;28;20549;-76
2021/12/29 00:39:12;;;;;;;41.60;19.20;;;-1.60;99.90;;;;;;5058524;28;20274;-76
2021/12/29 00:42:21;;;;;;;40.70;19.00;;;-1.50;99.90;;;;;;5060167;28;20208;-75
2021/12/29 00:45:41;;;;;;;38.83;19.37;;;-1.50;99.90;;;;;;5053028;28;20327;-76
2021/12/29 00:48:36;;;;;;;35.00;19.03;;;-1.50;99.90;;;;;;5057126;28;20231;-76
2021/12/29 00:51:24;;;;;;;39.50;18.67;;;-1.40;99.90;;;;;;5041959;28;20221;-75
2021/12/29 00:54:13;;;;;;;36.90;18.37;;;-1.40;99.90;;;;;;5037769;28;20233;-76
2021/12/29 00:57:01;;;;;;;39.40;18.97;;;-1.40;99.90;;;;;;5044167;28;20220;-78
2021/12/29 00:59:55;;;;;;;33.40;15.80;;;-1.40;99.90;;;;;;5044564;28;20220;-75
2021/12/29 01:02:44;;;;;;;34.27;16.07;;;-1.60;99.90;;;;;;5047234;28;20231;-75
2021/12/29 01:05:33;;;;;;;37.57;18.60;;;-1.60;99.90;;;;;;5055405;28;20221;-76
2021/12/29 01:08:22;;;;;;;35.47;18.10;;;-1.60;99.90;;;;;;5052104;28;20585;-76
2021/12/29 01:11:11;;;;;;;37.93;18.13;;;-1.50;99.90;;;;;;5058221;28;20236;-76
2021/12/29 01:13:59;;;;;;;34.97;17.37;;;-1.40;99.90;;;;;;5048564;28;20221;-74
2021/12/29 01:16:49;;;;;;;34.77;18.00;;;-1.40;99.90;;;;;;5060761;28;20224;-78
2021/12/29 01:19:38;;;;;;;35.30;17.30;;;-1.40;99.90;;;;;;5046314;28;20231;-75
2021/12/29 01:22:27;;;;;;;37.53;17.07;;;-1.30;99.90;;;;;;5060444;28;20209;-75
2021/12/29 01:25:15;;;;;;;36.70;16.37;;;-1.50;99.90;;;;;;5041868;28;20304;-77
2021/12/29 01:28:05;;;;;;;37.17;18.93;;;-1.30;99.90;;;;;;5060009;28;20231;-75
2021/12/29 01:30:54;;;;;;;35.13;18.57;;;-1.40;99.90;;;;;;5058754;28;20260;-76
2021/12/29 01:33:45;;;;;;;34.70;16.77;;;-1.30;99.90;;;;;;5050779;28;20644;-76
2021/12/29 01:36:35;;;;;;;35.77;15.17;;;-1.30;99.90;;;;;;5059634;28;20231;-76
2021/12/29 01:39:24;;;;;;;34.30;17.63;;;-1.40;99.90;;;;;;5059931;28;20616;-76
2021/12/29 01:42:12;;;;;;;33.70;17.17;;;-1.40;99.90;;;;;;5055593;28;20237;-76
2021/12/29 01:45:01;;;;;;;31.57;16.80;;;-1.50;99.90;;;;;;5042495;28;20224;-74
2021/12/29 01:47:50;;;;;;;31.63;16.67;;;-1.40;99.90;;;;;;5045696;28;20220;-76
2021/12/29 01:50:40;;;;;;;34.80;18.20;;;-1.40;99.90;;;;;;5059564;28;20224;-75
2021/12/29 01:53:32;;;;;;;33.50;17.07;;;-1.40;99.90;;;;;;5044359;28;20269;-77
2021/12/29 01:56:21;;;;;;;31.17;16.80;;;-1.30;99.90;;;;;;5058210;28;20222;-78
2021/12/29 01:59:09;;;;;;;34.30;16.90;;;-1.20;99.90;;;;;;5065692;28;20216;-76
2021/12/29 02:01:58;;;;;;;31.70;16.53;;;-1.30;99.90;;;;;;5060169;28;20219;-77
2021/12/29 02:04:48;;;;;;;32.13;16.73;;;-1.30;99.90;;;;;;5059562;28;20258;-77
2021/12/29 02:07:38;;;;;;;32.97;16.77;;;-1.40;99.90;;;;;;5046650;28;20235;-76
2021/12/29 02:10:31;;;;;;;32.63;16.77;;;-1.30;99.90;;;;;;5057114;28;20283;-77
2021/12/29 02:13:20;;;;;;;32.27;16.50;;;-1.30;99.90;;;;;;5042642;28;20291;-78
2021/12/29 02:16:09;;;;;;;32.90;16.90;;;-1.40;99.90;;;;;;5059698;28;20251;-76
2021/12/29 02:19:01;;;;;;;33.40;17.07;;;-1.40;99.90;;;;;;5057747;28;20245;-75
2021/12/29 02:21:57;;;;;;;33.80;16.67;;;-1.40;99.90;;;;;;5043266;28;20224;-77
2021/12/29 02:24:54;;;;;;;33.37;16.23;;;-1.40;99.90;;;;;;5050195;28;20224;-76
2021/12/29 02:27:44;;;;;;;34.67;18.03;;;-1.40;99.90;;;;;;5053370;28;20231;-77
2021/12/29 02:30:33;;;;;;;37.07;15.83;;;-1.40;99.90;;;;;;5057080;28;20228;-77
2021/12/29 02:33:21;;;;;;;36.77;18.43;;;-1.50;99.90;;;;;;5044290;28;20212;-77
2021/12/29 02:36:10;;;;;;;33.73;16.67;;;-1.40;99.90;;;;;;5065613;28;20212;-75
2021/12/29 02:39:02;;;;;;;34.33;16.87;;;-1.40;99.90;;;;;;5062428;28;20292;-75
2021/12/29 02:41:54;;;;;;;34.93;16.63;;;-1.40;99.90;;;;;;5058513;28;20232;-75
2021/12/29 02:44:43;;;;;;;35.37;19.03;;;-1.40;99.90;;;;;;5059230;28;20232;-77
2021/12/29 02:47:31;;;;;;;33.30;16.40;;;-1.40;99.90;;;;;;5047945;28;20228;-75
2021/12/29 02:50:20;;;;;;;35.73;17.77;;;-1.40;99.90;;;;;;5044263;28;20224;-75
2021/12/29 02:53:09;;;;;;;35.37;17.93;;;-1.40;99.90;;;;;;5045055;28;20364;-75
2021/12/29 02:55:59;;;;;;;36.20;18.30;;;-1.30;99.90;;;;;;5055488;28;20310;-75
2021/12/29 02:58:48;;;;;;;39.20;17.43;;;-1.30;99.90;;;;;;5056437;28;20696;-76
2021/12/29 03:01:36;;;;;;;34.37;15.80;;;-1.30;99.90;;;;;;5054989;28;20711;-76
2021/12/29 03:04:29;;;;;;;35.30;18.33;;;-1.40;99.90;;;;;;5053428;28;20242;-76
2021/12/29 03:07:18;;;;;;;36.37;17.93;;;-1.40;99.90;;;;;;5040664;28;20223;-73
2021/12/29 03:10:07;;;;;;;33.07;16.67;;;-1.40;99.90;;;;;;5061235;28;20704;-75
2021/12/29 03:12:57;;;;;;;35.43;18.17;;;-1.40;99.90;;;;;;5040576;28;20220;-76
2021/12/29 03:15:49;;;;;;;35.77;19.90;;;-1.40;99.90;;;;;;5043406;28;20219;-75
2021/12/29 03:18:38;;;;;;;35.60;18.50;;;-1.30;99.90;;;;;;5044162;28;20297;-75
2021/12/29 03:21:27;;;;;;;36.00;18.07;;;-1.30;99.90;;;;;;5052445;28;20222;-75
2021/12/29 03:24:15;;;;;;;36.03;16.37;;;-1.30;99.90;;;;;;5056701;28;20220;-74
2021/12/29 03:27:04;;;;;;;38.00;17.00;;;-1.40;99.90;;;;;;5058686;28;20310;-74
2021/12/29 03:29:58;;;;;;;38.73;19.77;;;-1.40;99.90;;;;;;5044193;28;20270;-75
2021/12/29 03:32:52;;;;;;;36.67;17.83;;;-1.40;99.90;;;;;;5058176;28;20243;-75
2021/12/29 03:35:43;;;;;;;36.73;18.97;;;-1.30;99.90;;;;;;5053164;28;20216;-75
2021/12/29 03:38:34;;;;;;;38.57;19.07;;;-1.30;99.90;;;;;;5062559;28;20235;-75
2021/12/29 03:41:24;;;;;;;40.60;21.30;;;-1.20;99.90;;;;;;5060516;28;20315;-77
2021/12/29 03:44:12;;;;;;;36.30;18.33;;;-1.20;99.90;;;;;;5050357;28;20216;-74
2021/12/29 03:47:03;;;;;;;19.30;10.70;;;-1.10;99.90;;;;;;5063867;28;20309;-76
2021/12/29 03:49:52;;;;;;;37.43;19.40;;;-1.20;99.90;;;;;;5059429;28;20228;-75
2021/12/29 03:52:40;;;;;;;35.67;19.37;;;-1.20;99.90;;;;;;5057528;28;20227;-76
2021/12/29 03:55:31;;;;;;;36.93;18.77;;;-1.20;99.90;;;;;;5059162;28;20212;-76
2021/12/29 03:58:20;;;;;;;39.83;18.87;;;-1.20;99.90;;;;;;5051687;28;20222;-76
2021/12/29 04:01:12;;;;;;;37.53;19.63;;;-1.20;99.90;;;;;;5043947;28;20823;-77
2021/12/29 04:04:05;;;;;;;33.27;16.83;;;-1.20;99.90;;;;;;5045458;28;20263;-76
2021/12/29 04:06:54;;;;;;;26.33;13.03;;;-1.20;99.90;;;;;;5055607;28;20220;-75
2021/12/29 04:09:43;;;;;;;36.73;20.43;;;-1.30;99.90;;;;;;5041572;28;20231;-75
2021/12/29 04:12:35;;;;;;;39.03;20.00;;;-1.30;99.90;;;;;;5055445;28;20224;-74
2021/12/29 04:15:25;;;;;;;39.00;19.63;;;-1.30;99.90;;;;;;5059520;28;20596;-76
2021/12/29 04:18:26;;;;;;;40.47;20.60;;;-1.20;99.90;;;;;;5059555;28;20229;-75
2021/12/29 04:21:18;;;;;;;39.73;20.20;;;-1.20;99.90;;;;;;5044571;28;20223;-75
2021/12/29 04:24:11;;;;;;;37.63;19.17;;;-1.30;99.90;;;;;;5056805;28;21037;-75
2021/12/29 04:27:00;;;;;;;39.13;19.17;;;-1.10;99.90;;;;;;5057879;28;20221;-75
2021/12/29 04:29:48;;;;;;;36.57;19.47;;;-1.10;99.90;;;;;;5052153;28;20220;-75
2021/12/29 04:32:37;;;;;;;35.77;18.77;;;-1.10;99.90;;;;;;5055962;28;20221;-75
2021/12/29 04:35:26;;;;;;;36.87;18.73;;;-1.10;99.90;;;;;;5048861;28;20334;-75
2021/12/29 04:38:16;;;;;;;38.57;19.97;;;-1.00;99.90;;;;;;5059918;28;20590;-76
2021/12/29 04:41:05;;;;;;;38.00;18.23;;;-1.00;99.90;;;;;;5060388;28;20250;-77
2021/12/29 04:43:54;;;;;;;37.93;19.93;;;-1.20;99.90;;;;;;5047574;28;20340;-76
2021/12/29 04:46:46;;;;;;;37.00;19.50;;;-1.10;99.90;;;;;;5060815;28;20234;-75
2021/12/29 04:49:40;;;;;;;35.07;18.37;;;-1.10;99.90;;;;;;5062524;28;20216;-75
2021/12/29 04:52:30;;;;;;;38.33;19.97;;;-1.10;99.90;;;;;;5060782;28;20268;-73
2021/12/29 04:55:20;;;;;;;42.00;19.43;;;-1.10;99.90;;;;;;5060170;28;20287;-74
2021/12/29 04:58:09;;;;;;;39.13;19.67;;;-1.20;99.90;;;;;;5062961;28;20216;-75
2021/12/29 05:00:58;;;;;;;36.50;17.87;;;-1.20;99.90;;;;;;5045590;28;20220;-77
2021/12/29 05:03:47;;;;;;;39.07;18.73;;;-1.30;99.90;;;;;;5052557;28;20218;-77
2021/12/29 05:09:57;;;;;;;38.20;18.93;;;-1.20;99.90;;;;;;4974922;28;20213;-77
2021/12/29 05:12:46;;;;;;;36.83;19.03;;;-1.10;99.90;;;;;;4980168;28;20223;-77
2021/12/29 05:15:35;;;;;;;38.77;18.93;;;-1.10;99.90;;;;;;5052435;28;20221;-77
2021/12/29 05:18:24;;;;;;;35.17;18.00;;;-1.20;99.90;;;;;;5059778;28;20209;-77
2021/12/29 05:21:13;;;;;;;37.23;16.93;;;-1.30;99.90;;;;;;5060451;28;20771;-76
2021/12/29 05:24:02;;;;;;;35.27;16.53;;;-1.20;99.90;;;;;;5060789;28;20224;-75
2021/12/29 05:26:50;;;;;;;43.17;18.67;;;-1.30;99.90;;;;;;5056993;28;20213;-76
2021/12/29 05:29:41;;;;;;;36.30;18.73;;;-1.40;99.90;;;;;;5054421;28;20224;-76
2021/12/29 05:32:30;;;;;;;35.37;16.07;;;-1.40;99.90;;;;;;5046661;28;20640;-76
2021/12/29 05:35:19;;;;;;;39.83;20.40;;;-1.40;99.90;;;;;;5058105;28;20717;-77
2021/12/29 05:38:07;;;;;;;45.93;21.70;;;-1.40;99.90;;;;;;5034835;28;20264;-77
2021/12/29 05:40:56;;;;;;;40.63;19.43;;;-1.20;99.90;;;;;;5049685;28;20712;-78
2021/12/29 05:43:45;;;;;;;36.83;18.60;;;-1.20;99.90;;;;;;5038058;28;20251;-77
2021/12/29 05:46:35;;;;;;;37.30;17.17;;;-1.50;99.90;;;;;;5038384;28;20233;-78
2021/12/29 05:49:24;;;;;;;37.33;17.87;;;-1.50;99.90;;;;;;5042138;28;20231;-77
2021/12/29 05:52:15;;;;;;;39.10;18.43;;;-1.50;99.90;;;;;;5045538;28;20240;-78
2021/12/29 05:55:04;;;;;;;43.60;20.23;;;-1.40;99.90;;;;;;5052338;28;20869;-77
2021/12/29 05:57:53;;;;;;;38.13;18.60;;;-1.30;99.90;;;;;;5060844;28;20231;-78
2021/12/29 06:00:43;;;;;;;39.07;20.33;;;-1.40;99.90;;;;;;5053816;28;20656;-77
2021/12/29 06:03:34;;;;;;;37.47;18.63;;;-1.20;99.90;;;;;;5054874;28;20231;-74
2021/12/29 06:06:22;;;;;;;40.73;20.50;;;-1.30;99.90;;;;;;5045181;28;20224;-77
2021/12/29 06:09:11;;;;;;;44.87;21.00;;;-1.30;99.90;;;;;;5057316;28;20566;-75
2021/12/29 06:12:00;;;;;;;44.03;20.67;;;-1.30;99.90;;;;;;5057524;28;20220;-75
2021/12/29 06:14:49;;;;;;;43.00;21.23;;;-1.20;99.90;;;;;;5051902;28;20224;-76
2021/12/29 06:17:38;;;;;;;43.67;20.87;;;-1.20;99.90;;;;;;5048324;28;20232;-74
2021/12/29 06:20:28;;;;;;;42.87;20.23;;;-1.30;99.90;;;;;;5043212;28;21004;-77
2021/12/29 06:23:17;;;;;;;42.53;20.30;;;-1.30;99.90;;;;;;5055684;28;20226;-77
2021/12/29 06:26:06;;;;;;;37.80;17.23;;;-1.20;99.90;;;;;;5048075;28;20233;-75
2021/12/29 06:28:54;;;;;;;45.37;20.27;;;-1.50;99.90;;;;;;5057303;28;20227;-75
2021/12/29 06:31:44;;;;;;;46.03;20.93;;;-1.40;99.90;;;;;;5030533;28;20235;-75
2021/12/29 06:34:35;;;;;;;46.27;21.10;;;-1.30;99.90;;;;;;5044119;28;20234;-75
2021/12/29 06:37:25;;;;;;;43.87;22.30;;;-1.30;99.90;;;;;;5042037;28;20336;-74
2021/12/29 06:40:15;;;;;;;47.47;22.23;;;-1.30;99.90;;;;;;5048834;28;20229;-77
2021/12/29 06:43:04;;;;;;;46.03;21.70;;;-1.20;99.90;;;;;;5047942;28;20220;-76
2021/12/29 06:45:53;;;;;;;46.70;22.87;;;-1.20;99.90;;;;;;5047376;28;20243;-77
2021/12/29 06:48:41;;;;;;;47.97;22.50;;;-1.10;99.90;;;;;;5031190;28;20235;-75
2021/12/29 06:51:30;;;;;;;49.03;22.27;;;-1.20;99.90;;;;;;5022348;28;20233;-78
2021/12/29 06:54:20;;;;;;;46.00;21.83;;;-1.10;99.90;;;;;;5029206;28;20234;-75
2021/12/29 06:57:09;;;;;;;47.47;21.90;;;-1.10;99.90;;;;;;5035927;28;20217;-75
2021/12/29 07:00:01;;;;;;;44.13;21.03;;;-1.10;99.90;;;;;;5019529;28;20233;-76
2021/12/29 07:02:51;;;;;;;49.10;21.50;;;-1.10;99.90;;;;;;5019609;28;20230;-77
2021/12/29 07:05:43;;;;;;;41.17;20.50;;;-1.10;99.90;;;;;;5034398;28;20316;-74
2021/12/29 07:08:32;;;;;;;45.40;21.83;;;-1.20;99.90;;;;;;5021238;28;20229;-74
2021/12/29 07:11:23;;;;;;;46.07;22.03;;;-1.30;99.90;;;;;;5013623;28;20236;-74
2021/12/29 07:14:12;;;;;;;49.30;20.53;;;-1.30;99.90;;;;;;5034412;28;20229;-75
2021/12/29 07:17:01;;;;;;;50.03;22.97;;;-1.30;99.90;;;;;;5018572;28;20221;-73
2021/12/29 07:19:50;;;;;;;49.90;21.97;;;-1.30;99.90;;;;;;5013957;28;20232;-74
2021/12/29 07:22:38;;;;;;;46.60;21.03;;;-1.20;99.90;;;;;;5031055;28;20336;-76
2021/12/29 07:25:29;;;;;;;59.70;25.70;;;-1.40;99.90;;;;;;5019966;28;20221;-66
2021/12/29 07:28:19;;;;;;;53.43;24.80;;;-1.30;99.90;;;;;;5021873;28;20606;-66
2021/12/29 07:31:08;;;;;;;42.57;21.50;;;-1.20;99.90;;;;;;5022535;28;20225;-68
2021/12/29 07:33:57;;;;;;;49.90;21.50;;;-1.20;99.90;;;;;;5029130;28;20296;-70
2021/12/29 07:36:45;;;;;;;45.60;22.90;;;-1.40;99.90;;;;;;5033197;28;20218;-66
2021/12/29 07:39:34;;;;;;;54.27;23.50;;;-1.30;99.90;;;;;;5032584;28;20221;-68
2021/12/29 07:42:23;;;;;;;56.73;24.27;;;-1.30;99.90;;;;;;5031980;28;20223;-67
2021/12/29 07:45:15;;;;;;;53.30;23.17;;;-1.30;99.90;;;;;;5025126;28;20226;-67
2021/12/29 07:48:05;;;;;;;59.63;24.60;;;-1.30;99.90;;;;;;5030961;28;20225;-67
2021/12/29 07:50:54;;;;;;;48.97;20.77;;;-1.30;99.90;;;;;;5034489;28;20304;-66
2021/12/29 07:53:43;;;;;;;57.50;24.70;;;-1.40;99.90;;;;;;5016450;28;20226;-68
2021/12/29 07:56:31;;;;;;;53.57;23.07;;;-1.30;99.90;;;;;;5044620;28;20217;-68
2021/12/29 07:59:20;;;;;;;55.87;24.90;;;-1.40;99.90;;;;;;5044859;28;20221;-66
2021/12/29 08:02:15;;;;;;;63.00;27.03;;;-1.60;99.90;;;;;;5039540;28;20259;-66
2021/12/29 08:05:05;;;;;;;61.13;26.50;;;-1.40;99.90;;;;;;5038895;28;20241;-68
2021/12/29 08:08:06;;;;;;;63.80;27.80;;;-1.30;99.90;;;;;;5054222;28;20315;-65
2021/12/29 08:10:55;;;;;;;58.73;24.70;;;-1.40;99.90;;;;;;5053239;28;21044;-69
2021/12/29 08:13:44;;;;;;;65.63;28.07;;;-1.40;99.90;;;;;;5050833;28;20233;-68
2021/12/29 08:16:33;;;;;;;58.50;22.77;;;-1.40;99.90;;;;;;5038128;28;20233;-67
2021/12/29 08:19:23;;;;;;;77.47;30.60;;;-1.40;99.90;;;;;;5053041;28;20673;-68
2021/12/29 08:22:12;;;;;;;80.20;26.73;;;-1.30;99.90;;;;;;5054168;28;20346;-68
2021/12/29 08:25:01;;;;;;;74.83;30.87;;;-1.40;99.90;;;;;;5047324;28;20213;-68
2021/12/29 08:27:50;;;;;;;63.87;25.77;;;-1.30;99.90;;;;;;5054313;28;20231;-67
2021/12/29 08:30:39;;;;;;;81.10;31.07;;;-1.40;99.90;;;;;;5055240;28;20246;-69
2021/12/29 08:33:27;;;;;;;67.83;29.07;;;-1.30;99.90;;;;;;5053653;28;20289;-66
2021/12/29 08:36:18;;;;;;;69.97;28.27;;;-1.30;99.90;;;;;;5043544;28;20221;-66
2021/12/29 08:39:06;;;;;;;66.83;28.87;;;-1.20;99.90;;;;;;5053701;28;20240;-66
2021/12/29 08:41:56;;;;;;;54.20;21.60;;;-1.20;99.90;;;;;;5050042;28;21376;-67
2021/12/29 08:44:45;;;;;;;72.80;30.33;;;-1.30;99.90;;;;;;5052243;28;20320;-67
2021/12/29 08:47:34;;;;;;;73.10;29.90;;;-1.20;99.90;;;;;;5041909;28;20217;-67
2021/12/29 08:50:25;;;;;;;69.13;28.93;;;-1.00;99.90;;;;;;5037950;28;20232;-67
2021/12/29 08:53:15;;;;;;;75.90;31.43;;;-1.10;99.90;;;;;;5039764;28;20731;-68
2021/12/29 08:56:05;;;;;;;62.83;28.87;;;-1.00;99.90;;;;;;5040770;28;20221;-66
2021/12/29 08:58:55;;;;;;;78.77;31.47;;;-1.00;99.90;;;;;;5051016;28;20229;-68
2021/12/29 09:01:43;;;;;;;69.73;29.63;;;-1.00;99.90;;;;;;5056501;28;20222;-68
2021/12/29 09:04:32;;;;;;;73.00;30.13;;;-1.10;99.90;;;;;;5043896;28;20588;-68
2021/12/29 09:07:21;;;;;;;77.63;32.30;;;-1.00;99.90;;;;;;5037118;28;20222;-65
2021/12/29 09:10:13;;;;;;;73.70;28.10;;;-0.80;99.90;;;;;;5057343;28;20213;-68
2021/12/29 09:13:02;;;;;;;73.00;30.03;;;-1.10;99.90;;;;;;5054484;28;20221;-67
2021/12/29 09:15:53;;;;;;;61.77;26.43;;;-0.90;99.90;;;;;;5050329;28;20315;-68
2021/12/29 09:18:42;;;;;;;70.33;29.33;;;-1.00;99.90;;;;;;5038577;28;20285;-67
2021/12/29 09:21:34;;;;;;;71.93;30.83;;;-0.90;99.90;;;;;;5035257;28;20274;-67
2021/12/29 09:24:22;;;;;;;77.70;31.93;;;-0.90;99.90;;;;;;5055225;28;20218;-69
2021/12/29 09:27:12;;;;;;;75.50;30.60;;;-0.80;99.90;;;;;;5053094;28;20235;-68
2021/12/29 09:30:01;;;;;;;70.97;29.90;;;-0.70;99.90;;;;;;5040030;28;20226;-68
2021/12/29 09:32:49;;;;;;;66.97;30.33;;;-0.60;99.90;;;;;;5037556;28;20213;-66
2021/12/29 09:35:38;;;;;;;71.27;30.20;;;-0.70;99.90;;;;;;5053711;28;20218;-66
2021/12/29 09:38:27;;;;;;;74.27;31.70;;;-0.70;99.90;;;;;;5054411;28;20218;-67
2021/12/29 09:41:18;;;;;;;73.13;30.20;;;-0.60;99.90;;;;;;5036643;28;20235;-68
2021/12/29 09:44:09;;;;;;;72.70;31.03;;;-0.60;99.90;;;;;;5049954;28;20212;-69
2021/12/29 09:46:58;;;;;;;76.47;32.53;;;-0.60;99.90;;;;;;5039928;28;20236;-68
2021/12/29 09:49:47;;;;;;;75.67;32.30;;;-0.50;99.90;;;;;;5053994;28;20325;-67
2021/12/29 09:52:36;;;;;;;75.20;31.50;;;-0.50;99.90;;;;;;5036340;28;20244;-69
2021/12/29 09:55:26;;;;;;;88.67;33.63;;;-0.70;99.90;;;;;;5052687;28;20232;-66
2021/12/29 09:58:16;;;;;;;73.27;31.97;;;-0.60;99.90;;;;;;5052757;28;20222;-70
2021/12/29 10:01:09;;;;;;;87.57;34.33;;;-0.60;99.90;;;;;;5039723;28;20609;-67
2021/12/29 10:03:58;;;;;;;77.90;32.67;;;-0.70;99.90;;;;;;5055065;28;20221;-68
2021/12/29 10:06:47;;;;;;;76.40;31.37;;;-0.60;99.90;;;;;;5045854;28;20225;-67
2021/12/29 10:09:35;;;;;;;78.40;34.33;;;-0.80;99.90;;;;;;5046720;28;20229;-69
2021/12/29 10:12:27;;;;;;;86.23;33.97;;;-0.60;99.90;;;;;;5051642;28;20698;-69
2021/12/29 10:15:26;;;;;;;86.40;33.80;;;-0.60;99.90;;;;;;5053473;28;20749;-69
2021/12/29 10:18:18;;;;;;;92.63;35.93;;;-0.50;99.90;;;;;;5055190;28;20235;-68
2021/12/29 10:21:10;;;;;;;82.57;33.83;;;-0.40;99.90;;;;;;5036014;28;20258;-68
2021/12/29 10:24:01;;;;;;;77.03;33.67;;;-0.40;99.90;;;;;;5030575;28;20539;-67
2021/12/29 10:26:59;;;;;;;78.37;33.27;;;-0.40;99.90;;;;;;5035598;28;20222;-69
2021/12/29 10:29:47;;;;;;;82.60;34.50;;;-0.30;99.90;;;;;;5043620;28;20237;-68
2021/12/29 10:32:36;;;;;;;88.13;35.07;;;-0.40;99.90;;;;;;5054861;28;20221;-70
2021/12/29 10:35:28;;;;;;;90.00;37.43;;;-0.30;99.90;;;;;;5053283;28;20227;-70
2021/12/29 10:38:19;;;;;;;84.50;34.53;;;-0.30;99.90;;;;;;5054545;28;20713;-66
2021/12/29 10:41:09;;;;;;;86.33;35.70;;;-0.20;99.90;;;;;;5057580;28;20277;-67
2021/12/29 10:44:00;;;;;;;83.13;34.53;;;-0.20;99.90;;;;;;5056493;28;20225;-69
2021/12/29 10:46:49;;;;;;;84.87;34.27;;;-0.30;99.90;;;;;;5054063;28;20705;-67
2021/12/29 10:49:38;;;;;;;78.73;33.77;;;-0.30;99.90;;;;;;5049446;28;20239;-69
2021/12/29 10:52:33;;;;;;;78.30;34.07;;;-0.20;99.90;;;;;;5037732;28;20214;-69
2021/12/29 10:55:31;;;;;;;80.77;32.23;;;-0.20;99.90;;;;;;5050643;28;20246;-68
2021/12/29 10:58:23;;;;;;;87.83;34.23;;;-0.20;99.90;;;;;;5039540;28;20347;-69
2021/12/29 11:01:14;;;;;;;89.73;35.30;;;-0.20;99.90;;;;;;5053356;28;20234;-69
2021/12/29 11:04:04;;;;;;;77.50;35.53;;;-0.10;99.90;;;;;;5037547;28;20261;-69
2021/12/29 11:06:56;;;;;;;81.57;35.77;;;0.00;99.90;;;;;;5037507;28;20235;-69
2021/12/29 11:09:46;;;;;;;81.83;34.97;;;0.10;99.90;;;;;;5052136;28;20222;-69
2021/12/29 11:12:49;;;;;;;91.37;36.73;;;0.00;99.90;;;;;;5049320;28;20219;-69
2021/12/29 11:15:42;;;;;;;93.83;37.67;;;0.00;99.90;;;;;;5050608;28;20590;-68
2021/12/29 11:18:50;;;;;;;84.27;34.70;;;-0.10;99.90;;;;;;5041052;28;20234;-65
2021/12/29 11:21:41;;;;;;;84.57;36.77;;;0.00;99.90;;;;;;5051687;28;20225;-67
2021/12/29 11:24:30;;;;;;;82.97;38.07;;;0.00;99.90;;;;;;5047648;28;20731;-66
2021/12/29 11:27:20;;;;;;;87.53;37.33;;;0.00;99.90;;;;;;5036296;28;20217;-68
2021/12/29 11:30:15;;;;;;;96.77;36.73;;;0.00;99.90;;;;;;5048074;28;20223;-69
2021/12/29 11:33:08;;;;;;;86.23;37.80;;;-0.10;99.90;;;;;;5042534;28;20573;-68
2021/12/29 11:35:56;;;;;;;87.77;38.00;;;-0.10;99.90;;;;;;5051688;28;20225;-68
2021/12/29 11:38:46;;;;;;;95.83;37.33;;;0.00;99.90;;;;;;5050929;28;20236;-68
2021/12/29 11:41:36;;;;;;;86.47;36.37;;;-0.10;99.90;;;;;;5043156;28;20691;-66
2021/12/29 11:44:26;;;;;;;88.50;37.20;;;-0.10;99.90;;;;;;5051539;28;20223;-67
2021/12/29 11:47:15;;;;;;;102.00;39.80;;;0.00;99.90;;;;;;5060425;28;20229;-66
2021/12/29 11:50:05;;;;;;;93.37;37.73;;;-0.10;99.90;;;;;;5056016;28;20220;-66
2021/12/29 11:53:09;;;;;;;99.33;39.37;;;-0.10;99.90;;;;;;5040471;28;20276;-68
2021/12/29 11:56:04;;;;;;;89.40;37.07;;;0.00;99.90;;;;;;5060781;28;20299;-67
2021/12/29 11:58:53;;;;;;;95.17;37.97;;;0.00;99.90;;;;;;5039310;28;20257;-67
2021/12/29 12:01:55;;;;;;;91.37;38.07;;;0.00;99.90;;;;;;5052997;28;20243;-68
2021/12/29 12:04:58;;;;;;;100.30;39.93;;;0.10;99.90;;;;;;5056770;28;20228;-66
2021/12/29 12:07:47;;;;;;;99.07;41.37;;;0.00;99.90;;;;;;5057307;28;20876;-66
2021/12/29 12:10:37;;;;;;;96.70;40.07;;;0.00;99.90;;;;;;5056925;28;20269;-67
2021/12/29 12:13:28;;;;;;;105.50;41.03;;;0.00;99.90;;;;;;5040004;28;20231;-67
2021/12/29 12:16:16;;;;;;;96.63;39.63;;;0.10;99.90;;;;;;5038759;28;20227;-70
2021/12/29 12:19:19;;;;;;;101.93;40.97;;;0.00;99.90;;;;;;5050557;28;20246;-69
2021/12/29 12:22:12;;;;;;;97.70;36.87;;;0.10;99.90;;;;;;5052635;28;20865;-67
2021/12/29 12:25:03;;;;;;;109.57;40.67;;;0.00;99.90;;;;;;5055006;28;20219;-69
2021/12/29 12:27:56;;;;;;;102.60;41.40;;;0.10;99.90;;;;;;5036741;28;20680;-70
2021/12/29 12:30:47;;;;;;;97.63;39.43;;;0.20;99.90;;;;;;5038336;28;20238;-68
2021/12/29 12:33:36;;;;;;;109.47;43.83;;;0.20;99.90;;;;;;5050318;28;20244;-68
2021/12/29 12:36:34;;;;;;;100.63;40.57;;;0.20;99.90;;;;;;5053980;28;20237;-70
2021/12/29 12:39:24;;;;;;;105.63;41.20;;;0.10;99.90;;;;;;5052883;28;20218;-66
2021/12/29 12:42:18;;;;;;;103.97;39.90;;;0.10;99.90;;;;;;5053191;28;20560;-67
2021/12/29 12:45:18;;;;;;;100.97;41.03;;;0.10;99.90;;;;;;5055931;28;20223;-69
2021/12/29 12:48:11;;;;;;;109.87;42.87;;;0.10;99.90;;;;;;5056083;28;20395;-67
2021/12/29 12:51:03;;;;;;;104.87;41.77;;;0.20;99.90;;;;;;5049071;28;20223;-69
2021/12/29 12:53:53;;;;;;;108.87;43.33;;;0.20;99.90;;;;;;5044365;28;20223;-69
2021/12/29 12:56:46;;;;;;;102.33;42.27;;;0.10;99.90;;;;;;5051996;28;20668;-68
2021/12/29 12:59:36;;;;;;;106.40;42.63;;;0.20;99.90;;;;;;5053316;28;20322;-67
2021/12/29 13:02:25;;;;;;;115.40;44.67;;;0.20;99.90;;;;;;5038213;28;20229;-69
2021/12/29 13:05:17;;;;;;;118.27;44.93;;;0.20;99.90;;;;;;5046265;28;20222;-68
2021/12/29 13:08:09;;;;;;;114.73;44.37;;;0.20;99.90;;;;;;5049747;28;20244;-68
2021/12/29 13:11:04;;;;;;;112.13;44.07;;;0.20;99.90;;;;;;5052822;28;20298;-69
2021/12/29 13:13:54;;;;;;;120.40;44.17;;;0.20;99.90;;;;;;5052352;28;20330;-69
2021/12/29 13:16:43;;;;;;;109.00;45.27;;;0.10;99.90;;;;;;5049916;28;20237;-69
2021/12/29 13:19:32;;;;;;;117.50;45.60;;;0.10;99.90;;;;;;5047091;28;20221;-67
2021/12/29 13:22:26;;;;;;;120.10;45.50;;;0.10;99.90;;;;;;5042637;28;20215;-67
2021/12/29 13:25:17;;;;;;;123.83;43.87;;;0.20;99.90;;;;;;5047198;28;20708;-68
2021/12/29 13:28:13;;;;;;;109.20;42.23;;;0.10;99.90;;;;;;5053730;28;20230;-68
2021/12/29 13:31:05;;;;;;;120.00;44.77;;;0.00;99.90;;;;;;5049728;28;20226;-69
2021/12/29 13:33:56;;;;;;;110.27;43.83;;;0.10;99.90;;;;;;5048163;28;20319;-68
2021/12/29 13:36:50;;;;;;;115.40;42.90;;;0.10;99.90;;;;;;5054090;28;20685;-69
2021/12/29 13:39:39;;;;;;;115.10;44.60;;;0.10;99.90;;;;;;5049482;28;20250;-69
2021/12/29 13:42:28;;;;;;;107.03;42.63;;;0.10;99.90;;;;;;5036562;28;20251;-69
2021/12/29 13:45:23;;;;;;;118.57;44.60;;;0.10;99.90;;;;;;5048769;28;20231;-68
2021/12/29 13:48:18;;;;;;;124.67;45.57;;;0.10;99.90;;;;;;5040363;28;22325;-69
2021/12/29 13:51:08;;;;;;;129.77;47.03;;;0.10;99.90;;;;;;5058307;28;20238;-67
2021/12/29 13:53:59;;;;;;;120.57;43.87;;;0.10;99.90;;;;;;5051952;28;20536;-68
2021/12/29 13:56:53;;;;;;;121.10;46.73;;;0.00;99.90;;;;;;5036336;28;20230;-70
2021/12/29 13:59:42;;;;;;;123.33;45.17;;;0.00;99.90;;;;;;5039762;28;20309;-68
2021/12/29 14:02:32;;;;;;;121.73;45.17;;;0.00;99.90;;;;;;5056402;28;20232;-65
2021/12/29 14:05:21;;;;;;;119.50;44.23;;;0.00;99.90;;;;;;5058495;28;22129;-63
2021/12/29 14:08:13;;;;;;;113.97;45.33;;;0.00;99.90;;;;;;5052328;28;20223;-66
2021/12/29 14:11:08;;;;;;;114.40;45.80;;;0.00;99.90;;;;;;5055913;28;20235;-64
2021/12/29 14:14:04;;;;;;;129.90;47.93;;;0.10;99.90;;;;;;5050834;28;20658;-66
2021/12/29 14:16:56;;;;;;;128.43;46.33;;;0.10;99.90;;;;;;5037046;28;20238;-68
2021/12/29 14:19:46;;;;;;;130.53;47.33;;;0.10;99.90;;;;;;5046084;28;20231;-70
2021/12/29 14:22:35;;;;;;;126.33;48.63;;;0.00;99.90;;;;;;5033082;28;20228;-69
2021/12/29 14:25:34;;;;;;;130.90;48.83;;;0.00;99.90;;;;;;5048479;28;20228;-69
2021/12/29 14:28:25;;;;;;;135.43;49.07;;;0.10;99.90;;;;;;5042683;28;20228;-66
2021/12/29 14:31:14;;;;;;;132.10;47.60;;;0.10;99.90;;;;;;5052371;28;20307;-65